createdAt,value
2018-05-12T00:02:18.283Z,4.43
2018-05-12T00:04:44.497Z,3.80
2018-05-12T00:07:11.479Z,4.20
2018-05-12T00:09:37.687Z,3.17
2018-05-12T00:12:04.625Z,3.70
2018-05-12T00:14:31.625Z,3.60
2018-05-12T00:16:57.851Z,3.77
2018-05-12T00:19:24.057Z,3.70
2018-05-12T00:21:50.264Z,3.80
2018-05-12T00:24:16.441Z,2.97
2018-05-12T00:26:43.444Z,3.67
2018-05-12T00:29:09.642Z,3.43
2018-05-12T00:31:35.825Z,3.70
2018-05-12T00:34:02.771Z,3.37
2018-05-12T00:36:29.333Z,3.47
2018-05-12T00:38:55.539Z,3.90
2018-05-12T00:41:21.767Z,3.40
2018-05-12T00:43:47.975Z,4.00
2018-05-12T00:46:14.207Z,3.13
2018-05-12T00:48:41.166Z,3.33
2018-05-12T00:51:07.382Z,3.70
2018-05-12T00:53:33.591Z,3.97
2018-05-12T00:55:59.803Z,3.97
2018-05-12T00:58:25.971Z,3.57
2018-05-12T01:00:52.140Z,3.63
2018-05-12T01:03:18.327Z,3.60
2018-05-12T01:05:44.497Z,3.20
2018-05-12T01:08:10.681Z,3.77
2018-05-12T01:10:36.920Z,3.57
2018-05-12T01:13:03.872Z,3.17
2018-05-12T01:15:30.808Z,3.10
2018-05-12T01:17:57.740Z,3.60
2018-05-12T01:20:23.926Z,3.60
2018-05-12T01:22:50.134Z,3.07
2018-05-12T01:25:17.076Z,3.60
2018-05-12T01:27:43.312Z,3.23
2018-05-12T01:30:09.482Z,3.37
2018-05-12T01:32:36.407Z,3.57
2018-05-12T01:35:02.584Z,3.73
2018-05-12T01:37:28.775Z,3.37
2018-05-12T01:39:55.716Z,3.43
2018-05-12T01:42:22.658Z,3.60
2018-05-12T01:44:49.600Z,3.40
2018-05-12T01:47:15.779Z,3.50
2018-05-12T01:49:41.979Z,3.63
2018-05-12T01:52:08.172Z,3.30
2018-05-12T01:54:34.394Z,3.20
2018-05-12T01:57:00.592Z,3.70
2018-05-12T01:59:26.766Z,3.70
2018-05-12T02:01:52.959Z,3.57
2018-05-12T02:04:19.146Z,3.57
2018-05-12T02:06:45.339Z,3.43
2018-05-12T02:09:12.284Z,3.73
2018-05-12T02:11:39.238Z,3.67
2018-05-12T02:14:05.462Z,3.50
2018-05-12T02:16:32.404Z,3.60
2018-05-12T02:18:59.342Z,3.40
2018-05-12T02:21:26.302Z,4.03
2018-05-12T02:23:52.525Z,3.60
2018-05-12T02:26:18.724Z,3.20
2018-05-12T02:28:44.924Z,3.90
2018-05-12T02:31:11.867Z,3.60
2018-05-12T02:33:38.830Z,3.40
2018-05-12T02:36:06.146Z,3.70
2018-05-12T02:38:32.356Z,3.43
2018-05-12T02:40:58.586Z,4.03
2018-05-12T02:43:24.798Z,3.77
2018-05-12T02:45:51.610Z,3.37
2018-05-12T02:48:17.790Z,3.20
2018-05-12T02:50:43.968Z,3.57
2018-05-12T02:53:10.916Z,3.80
2018-05-12T02:55:37.860Z,3.50
2018-05-12T02:58:04.061Z,3.33
2018-05-12T03:00:30.256Z,3.40
2018-05-12T03:02:56.460Z,3.40
2018-05-12T03:05:23.370Z,3.77
2018-05-12T03:07:49.546Z,3.27
2018-05-12T03:10:15.731Z,3.37
2018-05-12T03:12:41.950Z,3.53
2018-05-12T03:15:08.150Z,3.40
2018-05-12T03:17:35.066Z,3.47
2018-05-12T03:20:04.686Z,3.40
2018-05-12T03:22:30.871Z,3.43
2018-05-12T03:24:57.080Z,3.53
2018-05-12T03:27:23.256Z,3.17
2018-05-12T03:29:49.443Z,3.60
2018-05-12T03:32:15.648Z,3.73
2018-05-12T03:34:41.855Z,3.30
2018-05-12T03:37:08.053Z,3.27
2018-05-12T03:39:34.971Z,3.80
2018-05-12T03:42:01.168Z,3.97
2018-05-12T03:44:27.375Z,3.63
2018-05-12T03:46:54.309Z,4.47
2018-05-12T03:49:21.262Z,3.73
2018-05-12T03:51:48.205Z,3.50
2018-05-12T03:54:15.131Z,3.40
2018-05-12T03:56:41.304Z,3.40
2018-05-12T03:59:07.463Z,3.10
2018-05-12T04:01:33.644Z,3.77
2018-05-12T04:03:59.810Z,3.43
2018-05-12T04:06:26.021Z,3.00
2018-05-12T04:08:52.215Z,3.37
2018-05-12T04:11:18.411Z,3.70
2018-05-12T04:13:44.592Z,3.50
2018-05-12T04:16:10.790Z,3.13
2018-05-12T04:18:37.015Z,3.50
2018-05-12T04:21:03.223Z,3.27
2018-05-12T04:23:30.158Z,3.67
2018-05-12T04:25:56.618Z,3.20
2018-05-12T04:28:23.557Z,3.30
2018-05-12T04:30:50.463Z,3.90
2018-05-12T04:33:16.675Z,4.00
2018-05-12T04:35:42.877Z,3.30
2018-05-12T04:38:09.079Z,3.73
2018-05-12T04:40:35.266Z,3.43
2018-05-12T04:43:01.467Z,3.63
2018-05-12T04:45:27.669Z,3.50
2018-05-12T04:47:53.867Z,3.60
2018-05-12T04:50:20.075Z,3.60
2018-05-12T04:52:46.283Z,3.50
2018-05-12T04:55:13.247Z,3.23
2018-05-12T04:57:39.449Z,4.60
2018-05-12T05:00:05.665Z,3.90
2018-05-12T05:02:31.905Z,5.50
2018-05-12T05:04:58.085Z,4.23
2018-05-12T05:07:25.006Z,3.57
2018-05-12T05:09:51.861Z,3.47
2018-05-12T05:12:18.809Z,3.43
2018-05-12T05:14:45.016Z,4.03
2018-05-12T05:17:11.218Z,3.60
2018-05-12T05:19:37.520Z,4.30
2018-05-12T05:22:04.411Z,3.77
2018-05-12T05:24:30.592Z,3.43
2018-05-12T05:26:56.817Z,3.60
2018-05-12T05:29:22.992Z,3.97
2018-05-12T05:31:49.915Z,4.10
2018-05-12T05:34:16.123Z,3.77
2018-05-12T05:36:45.277Z,3.20
2018-05-12T05:39:11.485Z,3.70
2018-05-12T05:41:37.696Z,3.93
2018-05-12T05:44:03.927Z,3.50
2018-05-12T05:46:30.147Z,3.70
2018-05-12T05:48:56.377Z,4.07
2018-05-12T05:51:22.567Z,4.00
2018-05-12T05:53:49.488Z,3.50
2018-05-12T05:56:16.424Z,4.35
2018-05-12T05:58:42.619Z,3.50
2018-05-12T06:01:08.849Z,4.00
2018-05-12T06:03:35.098Z,3.27
2018-05-12T06:06:01.299Z,4.23
2018-05-12T06:08:27.484Z,4.10
2018-05-12T06:10:54.433Z,3.70
2018-05-12T06:13:21.355Z,3.63
2018-05-12T06:15:47.542Z,3.67
2018-05-12T06:18:13.771Z,3.80
2018-05-12T06:20:40.003Z,4.97
2018-05-12T06:23:07.222Z,3.67
2018-05-12T06:25:33.476Z,3.70
2018-05-12T06:27:59.784Z,3.77
2018-05-12T06:30:25.959Z,3.77
2018-05-12T06:32:52.782Z,3.80
2018-05-12T06:35:18.969Z,4.50
2018-05-12T06:37:45.390Z,3.47
2018-05-12T06:40:12.350Z,3.53
2018-05-12T06:42:38.582Z,5.07
2018-05-12T06:45:04.826Z,5.07
2018-05-12T06:47:31.076Z,4.63
2018-05-12T06:49:57.334Z,7.07
2018-05-12T06:52:23.578Z,9.97
2018-05-12T06:54:49.824Z,9.87
2018-05-12T06:57:16.078Z,9.93
2018-05-12T06:59:42.340Z,13.87
2018-05-12T07:02:09.498Z,11.60
2018-05-12T07:04:35.756Z,11.30
2018-05-12T07:07:02.016Z,12.83
2018-05-12T07:09:28.283Z,11.43
2018-05-12T07:11:54.500Z,11.70
2018-05-12T07:14:21.507Z,11.97
2018-05-12T07:16:47.744Z,12.33
2018-05-12T07:19:14.930Z,11.30
2018-05-12T07:21:41.164Z,16.10
2018-05-12T07:24:08.120Z,15.33
2018-05-12T07:26:34.324Z,13.87
2018-05-12T07:29:00.694Z,13.60
2018-05-12T07:31:26.928Z,15.97
2018-05-12T07:33:53.890Z,15.80
2018-05-12T07:36:20.142Z,14.83
2018-05-12T07:38:46.320Z,14.77
2018-05-12T07:41:12.536Z,15.53
2018-05-12T07:43:38.758Z,15.37
2018-05-12T07:46:05.724Z,14.97
2018-05-12T07:48:32.658Z,13.10
2018-05-12T07:50:58.850Z,13.40
2018-05-12T07:53:25.040Z,12.33
2018-05-12T07:55:51.291Z,11.67
2018-05-12T07:58:17.497Z,10.93
2018-05-12T08:00:44.424Z,10.37
2018-05-12T08:03:10.604Z,10.17
2018-05-12T08:05:36.812Z,10.73
2018-05-12T08:08:03.017Z,10.67
2018-05-12T08:10:29.239Z,11.07
2018-05-12T08:12:55.486Z,9.50
2018-05-12T08:15:21.683Z,9.47
2018-05-12T08:17:47.881Z,9.00
2018-05-12T08:20:14.104Z,8.53
2018-05-12T08:22:40.319Z,8.97
2018-05-12T08:25:06.524Z,8.63
2018-05-12T08:27:33.445Z,8.60
2018-05-12T08:29:59.663Z,7.50
2018-05-12T08:32:26.641Z,8.93
2018-05-12T08:34:52.825Z,7.00
2018-05-12T08:37:19.007Z,8.10
2018-05-12T08:39:45.995Z,7.00
2018-05-12T08:42:12.241Z,8.17
2018-05-12T08:44:38.437Z,8.00
2018-05-12T08:47:05.397Z,7.60
2018-05-12T08:49:31.619Z,7.57
2018-05-12T08:51:57.889Z,7.20
2018-05-12T08:54:27.308Z,7.73
2018-05-12T08:56:53.524Z,7.00
2018-05-12T08:59:19.760Z,7.23
2018-05-12T09:01:45.960Z,7.63
2018-05-12T09:04:12.162Z,7.13
2018-05-12T09:06:38.406Z,7.43
2018-05-12T09:09:04.653Z,8.07
2018-05-12T09:11:30.879Z,7.20
2018-05-12T09:13:57.102Z,6.90
2018-05-12T09:16:23.321Z,6.73
2018-05-12T09:18:49.827Z,6.77
2018-05-12T09:21:16.800Z,6.67
2018-05-12T09:23:43.006Z,6.20
2018-05-12T09:26:09.945Z,7.17
2018-05-12T09:28:36.147Z,6.90
2018-05-12T09:31:02.336Z,6.40
2018-05-12T09:33:28.553Z,7.27
2018-05-12T09:35:54.801Z,6.97
2018-05-12T09:38:21.004Z,6.73
2018-05-12T09:40:47.203Z,6.90
2018-05-12T09:43:13.399Z,6.93
2018-05-12T09:45:39.610Z,6.40
2018-05-12T09:48:05.816Z,7.10
2018-05-12T09:50:32.040Z,7.63
2018-05-12T09:52:58.254Z,6.47
2018-05-12T09:55:24.476Z,6.87
2018-05-12T09:57:50.681Z,7.90
2018-05-12T10:00:16.918Z,6.67
2018-05-12T10:02:43.137Z,6.20
2018-05-12T10:05:09.330Z,6.53
2018-05-12T10:07:36.277Z,6.60
2018-05-12T10:10:03.262Z,6.63
2018-05-12T10:12:29.508Z,6.13
2018-05-12T10:14:56.464Z,6.27
2018-05-12T10:17:22.695Z,6.23
2018-05-12T10:19:48.895Z,6.37
2018-05-12T10:22:15.862Z,5.97
2018-05-12T10:24:42.102Z,6.13
2018-05-12T10:27:09.102Z,6.67
2018-05-12T10:29:35.350Z,6.50
2018-05-12T10:32:01.541Z,6.33
2018-05-12T10:34:27.718Z,7.07
2018-05-12T10:36:53.954Z,5.77
2018-05-12T10:39:20.907Z,5.57
2018-05-12T10:41:47.847Z,6.33
2018-05-12T10:44:14.809Z,6.23
2018-05-12T10:46:41.741Z,6.10
2018-05-12T10:49:08.722Z,6.13
2018-05-12T10:51:34.939Z,5.77
2018-05-12T10:54:01.158Z,5.63
2018-05-12T10:56:27.368Z,5.93
2018-05-12T10:58:54.338Z,5.90
2018-05-12T11:01:21.322Z,6.93
2018-05-12T11:03:47.539Z,6.10
2018-05-12T11:06:13.764Z,6.00
2018-05-12T11:08:40.013Z,6.33
2018-05-12T11:11:06.229Z,5.97
2018-05-12T11:13:32.457Z,5.87
2018-05-12T11:15:58.767Z,5.97
2018-05-12T11:18:25.002Z,6.17
2018-05-12T11:20:51.174Z,5.70
2018-05-12T11:23:17.384Z,5.83
2018-05-12T11:25:44.352Z,5.83
2018-05-12T11:28:10.588Z,5.80
2018-05-12T11:30:36.826Z,5.40
2018-05-12T11:33:05.674Z,5.20
2018-05-12T11:35:31.894Z,6.03
2018-05-12T11:37:58.084Z,5.53
2018-05-12T11:40:25.074Z,5.60
2018-05-12T11:42:51.329Z,5.83
2018-05-12T11:45:17.523Z,5.20
2018-05-12T11:47:43.788Z,5.87
2018-05-12T11:50:10.792Z,6.00
2018-05-12T11:52:37.690Z,5.40
2018-05-12T11:55:04.629Z,5.60
2018-05-12T11:57:30.799Z,6.03
2018-05-12T11:59:57.010Z,5.67
2018-05-12T12:02:23.286Z,5.90
2018-05-12T12:04:49.418Z,6.10
2018-05-12T12:07:15.623Z,5.67
2018-05-12T12:09:42.551Z,5.70
2018-05-12T12:12:08.768Z,5.97
2018-05-12T12:14:35.728Z,5.67
2018-05-12T12:17:01.934Z,5.70
2018-05-12T12:19:28.160Z,5.63
2018-05-12T12:21:54.337Z,5.27
2018-05-12T12:24:20.566Z,5.67
2018-05-12T12:26:46.764Z,6.00
2018-05-12T12:29:12.973Z,6.17
2018-05-12T12:31:39.184Z,5.03
2018-05-12T12:34:05.392Z,4.90
2018-05-12T12:36:32.328Z,5.07
2018-05-12T12:38:59.288Z,5.53
2018-05-12T12:41:25.547Z,5.33
2018-05-12T12:43:51.745Z,5.73
2018-05-12T12:46:17.925Z,5.53
2018-05-12T12:48:44.129Z,5.30
2018-05-12T12:51:10.329Z,4.60
2018-05-12T12:53:37.317Z,6.03
2018-05-12T12:56:05.088Z,5.40
2018-05-12T12:58:32.030Z,5.20
2018-05-12T13:00:58.971Z,5.70
2018-05-12T13:03:25.951Z,5.47
2018-05-12T13:05:52.187Z,5.23
2018-05-12T13:08:18.409Z,5.30
2018-05-12T13:10:45.333Z,5.47
2018-05-12T13:13:11.530Z,5.57
2018-05-12T13:15:37.734Z,5.27
2018-05-12T13:18:03.932Z,5.60
2018-05-12T13:20:30.164Z,5.23
2018-05-12T13:22:56.390Z,4.80
2018-05-12T13:25:22.633Z,5.47
2018-05-12T13:27:48.823Z,5.33
2018-05-12T13:30:15.055Z,5.37
2018-05-12T13:32:41.275Z,5.40
2018-05-12T13:35:07.518Z,5.17
2018-05-12T13:37:33.705Z,5.03
2018-05-12T13:40:00.644Z,5.97
2018-05-12T13:42:26.844Z,4.83
2018-05-12T13:44:53.048Z,5.40
2018-05-12T13:47:19.278Z,5.30
2018-05-12T13:49:45.508Z,5.33
2018-05-12T13:52:11.707Z,4.60
2018-05-12T13:54:37.902Z,5.07
2018-05-12T13:57:04.091Z,4.90
2018-05-12T13:59:30.310Z,5.17
2018-05-12T14:01:57.251Z,5.87
2018-05-12T14:04:23.430Z,4.77
2018-05-12T14:06:49.674Z,5.83
2018-05-12T14:09:16.658Z,5.17
2018-05-12T14:11:42.844Z,5.07
2018-05-12T14:14:09.831Z,5.13
2018-05-12T14:16:36.055Z,4.87
2018-05-12T14:19:03.021Z,5.03
2018-05-12T14:21:29.219Z,5.13
2018-05-12T14:23:56.131Z,4.87
2018-05-12T14:26:22.383Z,4.70
2018-05-12T14:28:48.516Z,4.57
2018-05-12T14:31:14.741Z,4.80
2018-05-12T14:33:41.658Z,5.47
2018-05-12T14:36:07.834Z,4.90
2018-05-12T14:38:34.775Z,4.77
2018-05-12T14:41:01.749Z,4.93
2018-05-12T14:43:27.942Z,4.87
2018-05-12T14:45:55.544Z,5.30
2018-05-12T14:48:21.777Z,4.60
2018-05-12T14:50:47.974Z,4.67
2018-05-12T14:53:14.923Z,4.87
2018-05-12T14:55:41.856Z,4.63
2018-05-12T14:58:08.037Z,4.50
2018-05-12T15:00:34.994Z,4.63
2018-05-12T15:03:01.953Z,4.60
2018-05-12T15:05:28.171Z,4.53
2018-05-12T15:07:54.370Z,5.13
2018-05-12T15:10:20.604Z,4.80
2018-05-12T15:12:46.812Z,4.73
2018-05-12T15:15:13.012Z,4.70
2018-05-12T15:17:39.950Z,4.63
2018-05-12T15:20:06.152Z,4.40
2018-05-12T15:22:32.372Z,4.97
2018-05-12T15:24:58.587Z,4.43
2018-05-12T15:27:24.792Z,4.60
2018-05-12T15:29:51.755Z,4.67
2018-05-12T15:32:18.696Z,4.60
2018-05-12T15:34:45.681Z,4.77
2018-05-12T15:37:11.845Z,4.00
2018-05-12T15:39:38.027Z,4.80
2018-05-12T15:42:04.238Z,4.17
2018-05-12T15:44:30.453Z,4.33
2018-05-12T15:46:56.655Z,4.50
2018-05-12T15:49:22.900Z,4.33
2018-05-12T15:51:49.847Z,3.97
2018-05-12T15:54:16.061Z,4.40
2018-05-12T15:56:43.023Z,4.37
2018-05-12T15:59:09.975Z,4.53
2018-05-12T16:01:36.230Z,3.97
2018-05-12T16:04:02.466Z,4.27
2018-05-12T16:06:28.702Z,4.40
2018-05-12T16:08:54.904Z,4.03
2018-05-12T16:11:21.152Z,4.00
2018-05-12T16:13:47.342Z,4.23
2018-05-12T16:16:13.765Z,4.63
2018-05-12T16:18:39.976Z,4.23
2018-05-12T16:21:06.896Z,4.03
2018-05-12T16:23:33.847Z,4.63
2018-05-12T16:26:00.064Z,4.00
2018-05-12T16:28:26.282Z,3.80
2018-05-12T16:30:53.606Z,4.13
2018-05-12T16:33:20.550Z,4.43
2018-05-12T16:35:47.502Z,4.10
2018-05-12T16:38:13.704Z,3.70
2018-05-12T16:40:39.895Z,4.30
2018-05-12T16:43:06.091Z,4.47
2018-05-12T16:45:32.286Z,4.17
2018-05-12T16:47:58.494Z,4.10
2018-05-12T16:50:24.709Z,4.10
2018-05-12T16:52:50.935Z,3.93
2018-05-12T16:55:17.177Z,4.37
2018-05-12T16:57:44.126Z,5.17
2018-05-12T17:00:10.387Z,3.73
2018-05-12T17:02:36.591Z,4.23
2018-05-12T17:05:02.823Z,3.93
2018-05-12T17:07:29.798Z,4.50
2018-05-12T17:09:56.016Z,4.17
2018-05-12T17:12:22.229Z,4.20
2018-05-12T17:14:49.137Z,4.23
2018-05-12T17:17:15.359Z,3.90
2018-05-12T17:19:41.573Z,4.20
2018-05-12T17:22:07.805Z,4.63
2018-05-12T17:24:34.027Z,3.90
2018-05-12T17:27:00.251Z,3.93
2018-05-12T17:29:26.446Z,3.92
2018-05-12T17:31:52.619Z,4.17
2018-05-12T17:34:18.817Z,3.87
2018-05-12T17:36:45.022Z,4.63
2018-05-12T17:39:11.275Z,3.87
2018-05-12T17:41:37.509Z,3.80
2018-05-12T17:44:03.721Z,3.40
2018-05-12T17:46:30.659Z,4.30
2018-05-12T17:48:56.860Z,3.63
2018-05-12T17:51:23.033Z,4.40
2018-05-12T17:53:49.970Z,3.60
2018-05-12T17:56:16.157Z,4.03
2018-05-12T17:58:42.345Z,3.80
2018-05-12T18:01:08.573Z,3.80
2018-05-12T18:03:34.791Z,3.97
2018-05-12T18:06:02.457Z,3.80
2018-05-12T18:08:29.406Z,3.90
2018-05-12T18:10:55.613Z,4.47
2018-05-12T18:13:22.601Z,3.43
2018-05-12T18:15:49.245Z,3.83
2018-05-12T18:18:15.490Z,4.07
2018-05-12T18:20:41.691Z,3.93
2018-05-12T18:23:08.613Z,3.77
2018-05-12T18:25:35.552Z,3.63
2018-05-12T18:28:01.763Z,3.90
2018-05-12T18:30:27.987Z,4.10
2018-05-12T18:32:54.903Z,5.13
2018-05-12T18:35:21.140Z,5.10
2018-05-12T18:37:47.343Z,4.93
2018-05-12T18:40:13.572Z,4.37
2018-05-12T18:42:39.768Z,4.47
2018-05-12T18:45:06.743Z,5.00
2018-05-12T18:47:32.929Z,4.07
2018-05-12T18:50:05.934Z,4.80
2018-05-12T18:52:32.153Z,4.83
2018-05-12T18:54:58.386Z,4.23
2018-05-12T18:57:24.583Z,4.57
2018-05-12T18:59:50.775Z,4.30
2018-05-12T19:02:17.743Z,4.80
2018-05-12T19:04:43.928Z,4.10
2018-05-12T19:07:10.149Z,4.17
2018-05-12T19:09:36.356Z,4.33
2018-05-12T19:12:02.562Z,3.77
2018-05-12T19:14:28.758Z,4.10
2018-05-12T19:16:54.976Z,3.63
2018-05-12T19:19:21.201Z,4.30
2018-05-12T19:21:47.426Z,5.13
2018-05-12T19:24:13.644Z,4.83
2018-05-12T19:26:39.857Z,4.53
2018-05-12T19:29:06.086Z,4.17
2018-05-12T19:31:32.274Z,3.93
2018-05-12T19:33:59.232Z,4.10
2018-05-12T19:36:25.438Z,4.03
2018-05-12T19:38:51.662Z,3.70
2018-05-12T19:41:18.649Z,4.50
2018-05-12T19:43:44.997Z,3.93
2018-05-12T19:46:11.718Z,3.95
2018-05-12T19:48:37.936Z,4.33
2018-05-12T19:51:04.144Z,4.17
2018-05-12T19:53:30.338Z,3.70
2018-05-12T19:55:56.669Z,3.90
2018-05-12T19:58:22.825Z,4.20
2018-05-12T20:00:49.026Z,4.03
2018-05-12T20:03:15.254Z,5.17
2018-05-12T20:05:42.182Z,4.20
2018-05-12T20:08:08.403Z,3.70
2018-05-12T20:10:34.641Z,3.63
2018-05-12T20:13:01.613Z,4.10
2018-05-12T20:15:27.846Z,4.10
2018-05-12T20:17:54.052Z,3.40
2018-05-12T20:20:21.034Z,3.80
2018-05-12T20:22:47.237Z,3.60
2018-05-12T20:25:13.450Z,3.73
2018-05-12T20:27:40.424Z,3.50
2018-05-12T20:30:06.623Z,3.80
2018-05-12T20:32:33.583Z,4.13
2018-05-12T20:34:59.769Z,3.83
2018-05-12T20:37:26.078Z,3.70
2018-05-12T20:39:52.248Z,3.60
2018-05-12T20:42:18.450Z,3.70
2018-05-12T20:44:44.679Z,4.40
2018-05-12T20:47:10.887Z,3.80
2018-05-12T20:49:37.128Z,3.60
2018-05-12T20:52:03.365Z,4.00
2018-05-12T20:54:29.594Z,3.90
2018-05-12T20:56:55.800Z,3.70
2018-05-12T20:59:22.023Z,3.30
2018-05-12T21:01:48.200Z,3.67
2018-05-12T21:04:15.140Z,3.30
2018-05-12T21:06:42.515Z,4.07
2018-05-12T21:09:08.815Z,3.27
2018-05-12T21:11:35.054Z,3.70
2018-05-12T21:14:01.263Z,3.50
2018-05-12T21:16:32.595Z,3.40
2018-05-12T21:18:59.548Z,3.83
2018-05-12T21:21:26.486Z,3.80
2018-05-12T21:23:53.453Z,3.70
2018-05-12T21:26:19.587Z,3.83
2018-05-12T21:28:45.773Z,3.50
2018-05-12T21:31:11.964Z,3.60
2018-05-12T21:33:38.185Z,3.77
2018-05-12T21:36:04.424Z,3.80
2018-05-12T21:38:31.345Z,3.63
2018-05-12T21:40:58.284Z,3.67
2018-05-12T21:43:25.240Z,3.40
2018-05-12T21:45:52.183Z,3.87
2018-05-12T21:48:18.557Z,3.40
2018-05-12T21:50:44.789Z,3.60
2018-05-12T21:53:11.718Z,5.13
2018-05-12T21:55:37.910Z,3.63
2018-05-12T21:58:04.135Z,4.00
2018-05-12T22:00:30.352Z,4.57
2018-05-12T22:02:56.624Z,3.33
2018-05-12T22:05:22.830Z,3.20
2018-05-12T22:07:49.845Z,3.70
2018-05-12T22:10:16.746Z,4.03
2018-05-12T22:12:43.699Z,3.80
2018-05-12T22:15:09.901Z,3.70
2018-05-12T22:17:36.164Z,4.10
2018-05-12T22:20:02.379Z,4.30
2018-05-12T22:22:28.611Z,3.20
2018-05-12T22:24:54.810Z,3.27
2018-05-12T22:27:21.012Z,3.93
2018-05-12T22:29:47.207Z,3.60
2018-05-12T22:32:14.185Z,3.70
2018-05-12T22:34:40.424Z,3.50
2018-05-12T22:37:06.647Z,3.57
2018-05-12T22:39:33.609Z,3.87
2018-05-12T22:42:00.593Z,3.83
2018-05-12T22:44:26.842Z,3.33
2018-05-12T22:46:53.805Z,3.83
2018-05-12T22:49:20.027Z,3.77
2018-05-12T22:51:46.267Z,3.63
2018-05-12T22:54:12.445Z,3.53
2018-05-12T22:56:38.625Z,3.77
2018-05-12T22:59:04.838Z,3.30
2018-05-12T23:01:31.034Z,3.90
2018-05-12T23:03:57.310Z,3.40
2018-05-12T23:06:24.278Z,4.30
2018-05-12T23:08:51.221Z,3.60
2018-05-12T23:11:18.173Z,3.27
2018-05-12T23:13:45.138Z,3.57
2018-05-12T23:16:11.356Z,3.43
2018-05-12T23:18:38.274Z,3.47
2018-05-12T23:21:05.245Z,3.70
2018-05-12T23:23:31.453Z,4.60
2018-05-12T23:25:57.692Z,3.47
2018-05-12T23:28:23.905Z,3.90
2018-05-12T23:30:50.122Z,3.93
2018-05-12T23:33:16.360Z,3.60
2018-05-12T23:35:42.549Z,3.70
2018-05-12T23:38:08.748Z,3.27
2018-05-12T23:40:34.952Z,3.63
2018-05-12T23:43:01.160Z,3.70
2018-05-12T23:45:27.399Z,3.93
2018-05-12T23:47:53.650Z,3.57
2018-05-12T23:50:20.655Z,3.63
2018-05-12T23:52:46.900Z,3.60
2018-05-12T23:55:13.887Z,3.50
2018-05-12T23:57:40.089Z,3.23
